sensor_id;sensor_type;location;lat;lon;timestamp;P1;durP1;ratioP1;P2;durP2;ratioP2
6442;SDS011;3254;47.372;8.512;2022-08-19T00:00:14;66.77;;;27.10;;
6442;SDS011;3254;47.372;8.512;2022-08-19T00:02:41;57.90;;;27.30;;
6442;SDS011;3254;47.372;8.512;2022-08-19T00:05:07;70.03;;;29.10;;
6442;SDS011;3254;47.372;8.512;2022-08-19T00:07:35;66.43;;;28.73;;
6442;SDS011;3254;47.372;8.512;2022-08-19T00:10:03;53.83;;;27.60;;
6442;SDS011;3254;47.372;8.512;2022-08-19T00:12:30;65.37;;;30.53;;
6442;SDS011;3254;47.372;8.512;2022-08-19T00:14:56;69.20;;;28.97;;
6442;SDS011;3254;47.372;8.512;2022-08-19T00:17:22;76.10;;;32.10;;
6442;SDS011;3254;47.372;8.512;2022-08-19T00:19:47;62.90;;;28.87;;
6442;SDS011;3254;47.372;8.512;2022-08-19T00:22:13;55.77;;;27.80;;
6442;SDS011;3254;47.372;8.512;2022-08-19T00:24:39;74.33;;;30.83;;
6442;SDS011;3254;47.372;8.512;2022-08-19T00:27:06;73.60;;;30.47;;
6442;SDS011;3254;47.372;8.512;2022-08-19T00:29:32;64.97;;;29.73;;
6442;SDS011;3254;47.372;8.512;2022-08-19T00:31:57;56.63;;;27.23;;
6442;SDS011;3254;47.372;8.512;2022-08-19T00:34:25;64.17;;;29.43;;
6442;SDS011;3254;47.372;8.512;2022-08-19T00:36:53;73.07;;;29.77;;
6442;SDS011;3254;47.372;8.512;2022-08-19T00:39:18;81.63;;;31.80;;
6442;SDS011;3254;47.372;8.512;2022-08-19T00:41:45;81.00;;;32.53;;
6442;SDS011;3254;47.372;8.512;2022-08-19T00:44:18;64.60;;;29.80;;
6442;SDS011;3254;47.372;8.512;2022-08-19T00:46:46;57.50;;;29.40;;
6442;SDS011;3254;47.372;8.512;2022-08-19T00:51:45;52.53;;;27.20;;
6442;SDS011;3254;47.372;8.512;2022-08-19T00:54:15;61.60;;;29.37;;
6442;SDS011;3254;47.372;8.512;2022-08-19T00:56:41;68.77;;;31.67;;
6442;SDS011;3254;47.372;8.512;2022-08-19T00:59:09;92.43;;;33.97;;
6442;SDS011;3254;47.372;8.512;2022-08-19T01:01:39;67.20;;;28.83;;
6442;SDS011;3254;47.372;8.512;2022-08-19T01:04:06;64.80;;;29.73;;
6442;SDS011;3254;47.372;8.512;2022-08-19T01:06:32;72.70;;;32.47;;
6442;SDS011;3254;47.372;8.512;2022-08-19T01:09:00;67.73;;;29.50;;
6442;SDS011;3254;47.372;8.512;2022-08-19T01:11:26;57.60;;;29.07;;
6442;SDS011;3254;47.372;8.512;2022-08-19T01:13:53;64.57;;;29.50;;
6442;SDS011;3254;47.372;8.512;2022-08-19T01:16:20;67.13;;;29.27;;
6442;SDS011;3254;47.372;8.512;2022-08-19T01:18:48;62.73;;;27.57;;
6442;SDS011;3254;47.372;8.512;2022-08-19T01:21:18;78.47;;;31.27;;
6442;SDS011;3254;47.372;8.512;2022-08-19T01:23:55;53.07;;;28.00;;
6442;SDS011;3254;47.372;8.512;2022-08-19T01:26:22;71.13;;;36.60;;
6442;SDS011;3254;47.372;8.512;2022-08-19T01:28:49;76.50;;;36.07;;
6442;SDS011;3254;47.372;8.512;2022-08-19T01:31:18;56.07;;;28.17;;
6442;SDS011;3254;47.372;8.512;2022-08-19T01:33:47;67.90;;;31.17;;
6442;SDS011;3254;47.372;8.512;2022-08-19T01:36:15;50.43;;;27.90;;
6442;SDS011;3254;47.372;8.512;2022-08-19T01:38:47;83.37;;;32.07;;
6442;SDS011;3254;47.372;8.512;2022-08-19T01:41:14;77.33;;;32.10;;
6442;SDS011;3254;47.372;8.512;2022-08-19T01:43:41;65.23;;;29.57;;
6442;SDS011;3254;47.372;8.512;2022-08-19T01:46:07;59.30;;;27.00;;
6442;SDS011;3254;47.372;8.512;2022-08-19T01:48:37;60.53;;;28.60;;
6442;SDS011;3254;47.372;8.512;2022-08-19T01:51:04;83.03;;;31.90;;
6442;SDS011;3254;47.372;8.512;2022-08-19T01:53:30;75.87;;;31.37;;
6442;SDS011;3254;47.372;8.512;2022-08-19T01:55:56;59.87;;;27.67;;
6442;SDS011;3254;47.372;8.512;2022-08-19T01:58:24;63.47;;;30.30;;
6442;SDS011;3254;47.372;8.512;2022-08-19T02:00:55;54.07;;;28.00;;
6442;SDS011;3254;47.372;8.512;2022-08-19T02:03:22;53.67;;;25.90;;
6442;SDS011;3254;47.372;8.512;2022-08-19T02:05:48;48.63;;;25.10;;
6442;SDS011;3254;47.372;8.512;2022-08-19T02:08:19;45.13;;;24.50;;
6442;SDS011;3254;47.372;8.512;2022-08-19T02:10:45;43.50;;;22.90;;
6442;SDS011;3254;47.372;8.512;2022-08-19T02:13:11;60.73;;;25.50;;
6442;SDS011;3254;47.372;8.512;2022-08-19T02:15:38;47.20;;;24.70;;
6442;SDS011;3254;47.372;8.512;2022-08-19T02:18:04;52.87;;;26.00;;
6442;SDS011;3254;47.372;8.512;2022-08-19T02:20:30;43.53;;;23.50;;
6442;SDS011;3254;47.372;8.512;2022-08-19T02:22:56;58.30;;;27.80;;
6442;SDS011;3254;47.372;8.512;2022-08-19T02:25:21;52.97;;;27.27;;
6442;SDS011;3254;47.372;8.512;2022-08-19T02:27:47;56.37;;;27.43;;
6442;SDS011;3254;47.372;8.512;2022-08-19T02:30:14;75.30;;;30.37;;
6442;SDS011;3254;47.372;8.512;2022-08-19T02:32:41;50.23;;;27.23;;
6442;SDS011;3254;47.372;8.512;2022-08-19T02:35:07;56.20;;;27.57;;
6442;SDS011;3254;47.372;8.512;2022-08-19T02:37:33;57.17;;;26.90;;
6442;SDS011;3254;47.372;8.512;2022-08-19T02:40:18;58.60;;;28.20;;
6442;SDS011;3254;47.372;8.512;2022-08-19T02:42:44;48.13;;;26.57;;
6442;SDS011;3254;47.372;8.512;2022-08-19T02:45:11;54.43;;;27.10;;
6442;SDS011;3254;47.372;8.512;2022-08-19T02:47:38;65.23;;;30.47;;
6442;SDS011;3254;47.372;8.512;2022-08-19T02:50:04;60.07;;;28.53;;
6442;SDS011;3254;47.372;8.512;2022-08-19T02:52:31;57.07;;;27.00;;
6442;SDS011;3254;47.372;8.512;2022-08-19T02:54:58;51.20;;;25.87;;
6442;SDS011;3254;47.372;8.512;2022-08-19T02:57:25;55.07;;;27.07;;
6442;SDS011;3254;47.372;8.512;2022-08-19T02:59:51;59.63;;;27.80;;
6442;SDS011;3254;47.372;8.512;2022-08-19T03:02:17;68.77;;;30.87;;
6442;SDS011;3254;47.372;8.512;2022-08-19T03:04:43;74.70;;;30.90;;
6442;SDS011;3254;47.372;8.512;2022-08-19T03:07:09;52.20;;;27.73;;
6442;SDS011;3254;47.372;8.512;2022-08-19T03:09:38;56.97;;;28.77;;
6442;SDS011;3254;47.372;8.512;2022-08-19T03:12:04;59.83;;;30.20;;
6442;SDS011;3254;47.372;8.512;2022-08-19T03:14:31;63.90;;;30.60;;
6442;SDS011;3254;47.372;8.512;2022-08-19T03:16:57;66.63;;;30.93;;
6442;SDS011;3254;47.372;8.512;2022-08-19T03:19:23;68.33;;;29.93;;
6442;SDS011;3254;47.372;8.512;2022-08-19T03:21:49;75.80;;;32.80;;
6442;SDS011;3254;47.372;8.512;2022-08-19T03:24:15;101.53;;;38.00;;
6442;SDS011;3254;47.372;8.512;2022-08-19T03:26:45;83.77;;;35.20;;
6442;SDS011;3254;47.372;8.512;2022-08-19T03:29:12;82.07;;;35.20;;
6442;SDS011;3254;47.372;8.512;2022-08-19T03:31:39;91.30;;;36.50;;
6442;SDS011;3254;47.372;8.512;2022-08-19T03:34:06;97.00;;;38.70;;
6442;SDS011;3254;47.372;8.512;2022-08-19T03:36:32;89.67;;;37.77;;
6442;SDS011;3254;47.372;8.512;2022-08-19T03:38:59;85.07;;;37.20;;
6442;SDS011;3254;47.372;8.512;2022-08-19T03:41:27;91.67;;;40.23;;
6442;SDS011;3254;47.372;8.512;2022-08-19T03:43:55;91.57;;;39.17;;
6442;SDS011;3254;47.372;8.512;2022-08-19T03:46:22;106.10;;;39.83;;
6442;SDS011;3254;47.372;8.512;2022-08-19T03:48:51;98.37;;;39.33;;
6442;SDS011;3254;47.372;8.512;2022-08-19T03:51:21;113.90;;;42.83;;
6442;SDS011;3254;47.372;8.512;2022-08-19T03:53:49;133.43;;;44.57;;
6442;SDS011;3254;47.372;8.512;2022-08-19T03:56:16;119.97;;;44.97;;
6442;SDS011;3254;47.372;8.512;2022-08-19T03:58:42;107.57;;;39.63;;
6442;SDS011;3254;47.372;8.512;2022-08-19T04:01:09;104.53;;;41.00;;
6442;SDS011;3254;47.372;8.512;2022-08-19T04:03:43;94.93;;;39.60;;
6442;SDS011;3254;47.372;8.512;2022-08-19T04:08:47;82.13;;;36.10;;
6442;SDS011;3254;47.372;8.512;2022-08-19T04:11:16;98.73;;;41.10;;
6442;SDS011;3254;47.372;8.512;2022-08-19T04:13:45;111.97;;;40.97;;
6442;SDS011;3254;47.372;8.512;2022-08-19T04:16:11;104.90;;;40.37;;
6442;SDS011;3254;47.372;8.512;2022-08-19T04:18:37;99.43;;;42.10;;
6442;SDS011;3254;47.372;8.512;2022-08-19T04:21:05;105.07;;;41.63;;
6442;SDS011;3254;47.372;8.512;2022-08-19T04:23:32;110.83;;;42.60;;
6442;SDS011;3254;47.372;8.512;2022-08-19T04:25:59;96.50;;;40.80;;
6442;SDS011;3254;47.372;8.512;2022-08-19T04:28:24;111.03;;;42.23;;
6442;SDS011;3254;47.372;8.512;2022-08-19T04:30:52;137.77;;;46.43;;
6442;SDS011;3254;47.372;8.512;2022-08-19T04:33:20;123.53;;;44.77;;
6442;SDS011;3254;47.372;8.512;2022-08-19T04:35:48;117.57;;;41.83;;
6442;SDS011;3254;47.372;8.512;2022-08-19T04:38:16;108.63;;;43.40;;
6442;SDS011;3254;47.372;8.512;2022-08-19T04:40:46;111.40;;;44.43;;
6442;SDS011;3254;47.372;8.512;2022-08-19T04:43:33;95.20;;;39.27;;
6442;SDS011;3254;47.372;8.512;2022-08-19T04:46:07;117.33;;;43.77;;
6442;SDS011;3254;47.372;8.512;2022-08-19T04:48:35;124.03;;;44.90;;
6442;SDS011;3254;47.372;8.512;2022-08-19T04:51:05;126.67;;;45.33;;
6442;SDS011;3254;47.372;8.512;2022-08-19T04:53:34;131.00;;;44.53;;
6442;SDS011;3254;47.372;8.512;2022-08-19T04:56:04;126.07;;;45.80;;
6442;SDS011;3254;47.372;8.512;2022-08-19T04:58:32;125.23;;;43.40;;
6442;SDS011;3254;47.372;8.512;2022-08-19T05:00:58;120.70;;;45.40;;
6442;SDS011;3254;47.372;8.512;2022-08-19T05:03:25;121.53;;;46.70;;
6442;SDS011;3254;47.372;8.512;2022-08-19T05:05:51;120.13;;;48.47;;
6442;SDS011;3254;47.372;8.512;2022-08-19T05:08:17;118.73;;;44.67;;
6442;SDS011;3254;47.372;8.512;2022-08-19T05:10:45;113.40;;;44.00;;
6442;SDS011;3254;47.372;8.512;2022-08-19T05:13:12;117.53;;;47.60;;
6442;SDS011;3254;47.372;8.512;2022-08-19T05:15:37;120.57;;;45.53;;
6442;SDS011;3254;47.372;8.512;2022-08-19T05:18:03;114.03;;;44.50;;
6442;SDS011;3254;47.372;8.512;2022-08-19T05:20:48;113.63;;;44.30;;
6442;SDS011;3254;47.372;8.512;2022-08-19T05:23:32;120.63;;;44.60;;
6442;SDS011;3254;47.372;8.512;2022-08-19T05:25:58;107.07;;;43.53;;
6442;SDS011;3254;47.372;8.512;2022-08-19T05:28:23;120.57;;;46.37;;
6442;SDS011;3254;47.372;8.512;2022-08-19T05:30:49;98.10;;;42.83;;
6442;SDS011;3254;47.372;8.512;2022-08-19T05:33:16;124.50;;;44.97;;
6442;SDS011;3254;47.372;8.512;2022-08-19T05:35:43;94.17;;;41.97;;
6442;SDS011;3254;47.372;8.512;2022-08-19T05:38:09;81.10;;;39.43;;
6442;SDS011;3254;47.372;8.512;2022-08-19T05:40:36;93.90;;;41.13;;
6442;SDS011;3254;47.372;8.512;2022-08-19T05:43:03;92.20;;;41.87;;
6442;SDS011;3254;47.372;8.512;2022-08-19T05:45:30;110.83;;;43.50;;
6442;SDS011;3254;47.372;8.512;2022-08-19T05:47:56;95.57;;;41.77;;
6442;SDS011;3254;47.372;8.512;2022-08-19T05:50:22;105.67;;;43.60;;
6442;SDS011;3254;47.372;8.512;2022-08-19T05:52:48;97.87;;;43.20;;
6442;SDS011;3254;47.372;8.512;2022-08-19T05:55:13;87.03;;;39.77;;
6442;SDS011;3254;47.372;8.512;2022-08-19T05:57:39;86.03;;;40.73;;
6442;SDS011;3254;47.372;8.512;2022-08-19T06:00:05;91.00;;;38.90;;
6442;SDS011;3254;47.372;8.512;2022-08-19T06:02:36;86.13;;;39.83;;
6442;SDS011;3254;47.372;8.512;2022-08-19T06:05:03;69.17;;;35.33;;
6442;SDS011;3254;47.372;8.512;2022-08-19T06:07:31;59.50;;;32.97;;
6442;SDS011;3254;47.372;8.512;2022-08-19T06:09:57;64.20;;;34.40;;
6442;SDS011;3254;47.372;8.512;2022-08-19T06:12:23;71.20;;;34.93;;
6442;SDS011;3254;47.372;8.512;2022-08-19T06:14:53;52.17;;;31.30;;
6442;SDS011;3254;47.372;8.512;2022-08-19T06:17:20;57.20;;;30.70;;
6442;SDS011;3254;47.372;8.512;2022-08-19T06:19:47;50.37;;;29.70;;
6442;SDS011;3254;47.372;8.512;2022-08-19T06:22:14;48.03;;;28.90;;
6442;SDS011;3254;47.372;8.512;2022-08-19T06:24:41;42.17;;;26.83;;
6442;SDS011;3254;47.372;8.512;2022-08-19T06:27:07;43.77;;;28.67;;
6442;SDS011;3254;47.372;8.512;2022-08-19T06:29:33;40.43;;;27.57;;
6442;SDS011;3254;47.372;8.512;2022-08-19T06:31:59;35.60;;;25.50;;
6442;SDS011;3254;47.372;8.512;2022-08-19T06:34:26;39.23;;;27.47;;
6442;SDS011;3254;47.372;8.512;2022-08-19T06:36:53;43.73;;;27.50;;
6442;SDS011;3254;47.372;8.512;2022-08-19T06:39:24;44.13;;;29.93;;
6442;SDS011;3254;47.372;8.512;2022-08-19T06:41:53;37.10;;;26.00;;
6442;SDS011;3254;47.372;8.512;2022-08-19T06:44:21;40.17;;;27.73;;
6442;SDS011;3254;47.372;8.512;2022-08-19T06:46:48;41.10;;;27.63;;
6442;SDS011;3254;47.372;8.512;2022-08-19T06:49:14;36.97;;;27.20;;
6442;SDS011;3254;47.372;8.512;2022-08-19T06:51:42;40.37;;;27.23;;
6442;SDS011;3254;47.372;8.512;2022-08-19T06:54:15;33.00;;;25.23;;
6442;SDS011;3254;47.372;8.512;2022-08-19T06:56:42;41.83;;;26.93;;
6442;SDS011;3254;47.372;8.512;2022-08-19T06:59:11;35.33;;;27.63;;
6442;SDS011;3254;47.372;8.512;2022-08-19T07:01:49;38.13;;;27.10;;
6442;SDS011;3254;47.372;8.512;2022-08-19T07:04:18;34.90;;;27.10;;
6442;SDS011;3254;47.372;8.512;2022-08-19T07:06:46;36.67;;;27.73;;
6442;SDS011;3254;47.372;8.512;2022-08-19T07:09:12;36.20;;;26.20;;
6442;SDS011;3254;47.372;8.512;2022-08-19T07:11:44;41.67;;;27.80;;
6442;SDS011;3254;47.372;8.512;2022-08-19T07:14:12;39.37;;;26.97;;
6442;SDS011;3254;47.372;8.512;2022-08-19T07:16:39;36.10;;;25.40;;
6442;SDS011;3254;47.372;8.512;2022-08-19T07:19:05;44.37;;;28.83;;
6442;SDS011;3254;47.372;8.512;2022-08-19T07:21:30;32.07;;;24.90;;
6442;SDS011;3254;47.372;8.512;2022-08-19T07:23:56;37.73;;;26.47;;
6442;SDS011;3254;47.372;8.512;2022-08-19T07:26:29;35.40;;;26.87;;
6442;SDS011;3254;47.372;8.512;2022-08-19T07:28:57;32.60;;;25.60;;
6442;SDS011;3254;47.372;8.512;2022-08-19T07:31:24;37.30;;;26.07;;
6442;SDS011;3254;47.372;8.512;2022-08-19T07:33:52;32.20;;;25.63;;
6442;SDS011;3254;47.372;8.512;2022-08-19T07:36:21;33.20;;;24.77;;
6442;SDS011;3254;47.372;8.512;2022-08-19T07:38:57;35.57;;;26.00;;
6442;SDS011;3254;47.372;8.512;2022-08-19T07:41:26;34.43;;;25.80;;
6442;SDS011;3254;47.372;8.512;2022-08-19T07:43:53;40.77;;;26.93;;
6442;SDS011;3254;47.372;8.512;2022-08-19T07:46:20;32.20;;;24.97;;
6442;SDS011;3254;47.372;8.512;2022-08-19T07:48:47;32.13;;;24.60;;
6442;SDS011;3254;47.372;8.512;2022-08-19T07:51:16;35.40;;;25.40;;
6442;SDS011;3254;47.372;8.512;2022-08-19T07:53:45;39.90;;;26.73;;
6442;SDS011;3254;47.372;8.512;2022-08-19T07:56:12;39.57;;;26.77;;
6442;SDS011;3254;47.372;8.512;2022-08-19T07:58:39;41.53;;;29.57;;
6442;SDS011;3254;47.372;8.512;2022-08-19T08:01:07;36.20;;;27.10;;
6442;SDS011;3254;47.372;8.512;2022-08-19T08:03:36;47.80;;;29.10;;
6442;SDS011;3254;47.372;8.512;2022-08-19T08:06:21;43.67;;;30.10;;
6442;SDS011;3254;47.372;8.512;2022-08-19T08:09:06;42.80;;;30.03;;
6442;SDS011;3254;47.372;8.512;2022-08-19T08:11:36;47.50;;;31.27;;
6442;SDS011;3254;47.372;8.512;2022-08-19T08:14:03;40.83;;;29.67;;
6442;SDS011;3254;47.372;8.512;2022-08-19T08:16:30;42.93;;;31.83;;
6442;SDS011;3254;47.372;8.512;2022-08-19T08:18:59;48.30;;;32.60;;
6442;SDS011;3254;47.372;8.512;2022-08-19T08:21:25;50.67;;;35.20;;
6442;SDS011;3254;47.372;8.512;2022-08-19T08:23:51;51.43;;;34.20;;
6442;SDS011;3254;47.372;8.512;2022-08-19T08:26:17;53.53;;;33.60;;
6442;SDS011;3254;47.372;8.512;2022-08-19T08:28:43;52.83;;;34.40;;
6442;SDS011;3254;47.372;8.512;2022-08-19T08:31:13;50.50;;;33.70;;
6442;SDS011;3254;47.372;8.512;2022-08-19T08:33:39;52.07;;;33.07;;
6442;SDS011;3254;47.372;8.512;2022-08-19T08:36:07;48.53;;;31.90;;
6442;SDS011;3254;47.372;8.512;2022-08-19T08:38:33;55.27;;;33.33;;
6442;SDS011;3254;47.372;8.512;2022-08-19T08:41:01;46.93;;;32.60;;
6442;SDS011;3254;47.372;8.512;2022-08-19T08:43:37;46.30;;;33.17;;
6442;SDS011;3254;47.372;8.512;2022-08-19T08:46:09;54.10;;;32.93;;
6442;SDS011;3254;47.372;8.512;2022-08-19T08:48:48;51.93;;;33.43;;
6442;SDS011;3254;47.372;8.512;2022-08-19T08:51:22;53.90;;;34.10;;
6442;SDS011;3254;47.372;8.512;2022-08-19T08:53:52;48.33;;;33.43;;
6442;SDS011;3254;47.372;8.512;2022-08-19T08:56:20;56.90;;;32.67;;
6442;SDS011;3254;47.372;8.512;2022-08-19T09:01:46;66.80;;;36.60;;
6442;SDS011;3254;47.372;8.512;2022-08-19T09:04:13;55.33;;;33.87;;
6442;SDS011;3254;47.372;8.512;2022-08-19T09:15:07;71.83;;;37.73;;
6442;SDS011;3254;47.372;8.512;2022-08-19T09:17:35;67.40;;;40.73;;
6442;SDS011;3254;47.372;8.512;2022-08-19T09:22:40;79.53;;;42.00;;
6442;SDS011;3254;47.372;8.512;2022-08-19T09:25:11;73.47;;;39.63;;
6442;SDS011;3254;47.372;8.512;2022-08-19T09:27:42;86.07;;;40.77;;
6442;SDS011;3254;47.372;8.512;2022-08-19T09:30:16;87.87;;;42.13;;
6442;SDS011;3254;47.372;8.512;2022-08-19T09:32:48;80.27;;;41.17;;
6442;SDS011;3254;47.372;8.512;2022-08-19T09:35:17;88.00;;;43.27;;
6442;SDS011;3254;47.372;8.512;2022-08-19T09:37:44;71.90;;;37.50;;
6442;SDS011;3254;47.372;8.512;2022-08-19T09:40:10;79.80;;;42.03;;
6442;SDS011;3254;47.372;8.512;2022-08-19T09:42:36;87.63;;;42.60;;
6442;SDS011;3254;47.372;8.512;2022-08-19T09:45:02;85.17;;;42.53;;
6442;SDS011;3254;47.372;8.512;2022-08-19T09:47:29;79.30;;;45.73;;
6442;SDS011;3254;47.372;8.512;2022-08-19T09:49:54;84.73;;;43.53;;
6442;SDS011;3254;47.372;8.512;2022-08-19T09:52:20;83.60;;;43.20;;
6442;SDS011;3254;47.372;8.512;2022-08-19T09:54:46;82.60;;;41.43;;
6442;SDS011;3254;47.372;8.512;2022-08-19T09:57:12;77.93;;;41.83;;
6442;SDS011;3254;47.372;8.512;2022-08-19T09:59:38;78.67;;;41.27;;
6442;SDS011;3254;47.372;8.512;2022-08-19T10:02:04;81.63;;;44.30;;
6442;SDS011;3254;47.372;8.512;2022-08-19T10:04:30;83.67;;;46.40;;
6442;SDS011;3254;47.372;8.512;2022-08-19T10:07:14;78.70;;;42.83;;
6442;SDS011;3254;47.372;8.512;2022-08-19T10:09:40;87.80;;;44.70;;
6442;SDS011;3254;47.372;8.512;2022-08-19T10:12:06;81.97;;;44.30;;
6442;SDS011;3254;47.372;8.512;2022-08-19T10:14:32;89.57;;;45.60;;
6442;SDS011;3254;47.372;8.512;2022-08-19T10:16:58;87.67;;;43.57;;
6442;SDS011;3254;47.372;8.512;2022-08-19T10:19:25;86.13;;;45.33;;
6442;SDS011;3254;47.372;8.512;2022-08-19T10:21:53;73.50;;;41.57;;
6442;SDS011;3254;47.372;8.512;2022-08-19T10:24:19;84.50;;;43.97;;
6442;SDS011;3254;47.372;8.512;2022-08-19T10:26:45;87.73;;;44.17;;
6442;SDS011;3254;47.372;8.512;2022-08-19T10:29:13;79.03;;;40.30;;
6442;SDS011;3254;47.372;8.512;2022-08-19T10:31:40;78.43;;;43.23;;
6442;SDS011;3254;47.372;8.512;2022-08-19T10:34:07;68.93;;;39.27;;
6442;SDS011;3254;47.372;8.512;2022-08-19T10:36:35;76.77;;;43.63;;
6442;SDS011;3254;47.372;8.512;2022-08-19T10:39:06;80.63;;;42.20;;
6442;SDS011;3254;47.372;8.512;2022-08-19T10:41:34;88.23;;;45.10;;
6442;SDS011;3254;47.372;8.512;2022-08-19T10:44:04;92.97;;;47.87;;
6442;SDS011;3254;47.372;8.512;2022-08-19T10:46:32;87.47;;;46.47;;
6442;SDS011;3254;47.372;8.512;2022-08-19T10:49:02;74.47;;;41.43;;
6442;SDS011;3254;47.372;8.512;2022-08-19T10:51:29;74.67;;;41.60;;
6442;SDS011;3254;47.372;8.512;2022-08-19T10:54:15;77.80;;;43.73;;
6442;SDS011;3254;47.372;8.512;2022-08-19T10:56:41;79.10;;;41.50;;
6442;SDS011;3254;47.372;8.512;2022-08-19T10:59:24;84.53;;;44.43;;
6442;SDS011;3254;47.372;8.512;2022-08-19T11:01:52;76.20;;;41.13;;
6442;SDS011;3254;47.372;8.512;2022-08-19T11:04:23;65.63;;;37.53;;
6442;SDS011;3254;47.372;8.512;2022-08-19T11:06:49;68.20;;;38.47;;
6442;SDS011;3254;47.372;8.512;2022-08-19T11:09:16;62.97;;;35.87;;
6442;SDS011;3254;47.372;8.512;2022-08-19T11:11:43;60.33;;;38.07;;
6442;SDS011;3254;47.372;8.512;2022-08-19T11:14:13;62.50;;;38.53;;
6442;SDS011;3254;47.372;8.512;2022-08-19T11:16:40;72.93;;;41.97;;
6442;SDS011;3254;47.372;8.512;2022-08-19T11:19:07;73.33;;;42.50;;
6442;SDS011;3254;47.372;8.512;2022-08-19T11:21:39;80.20;;;42.50;;
6442;SDS011;3254;47.372;8.512;2022-08-19T11:24:10;69.33;;;41.67;;
6442;SDS011;3254;47.372;8.512;2022-08-19T11:26:40;73.07;;;41.60;;
6442;SDS011;3254;47.372;8.512;2022-08-19T11:29:06;70.87;;;41.40;;
6442;SDS011;3254;47.372;8.512;2022-08-19T11:31:36;70.47;;;41.83;;
6442;SDS011;3254;47.372;8.512;2022-08-19T11:34:05;67.13;;;40.87;;
6442;SDS011;3254;47.372;8.512;2022-08-19T11:36:32;67.00;;;39.87;;
6442;SDS011;3254;47.372;8.512;2022-08-19T11:38:58;65.60;;;39.17;;
6442;SDS011;3254;47.372;8.512;2022-08-19T11:41:25;72.80;;;39.53;;
6442;SDS011;3254;47.372;8.512;2022-08-19T11:43:51;75.03;;;41.83;;
6442;SDS011;3254;47.372;8.512;2022-08-19T11:46:21;62.70;;;37.70;;
6442;SDS011;3254;47.372;8.512;2022-08-19T11:48:48;70.77;;;41.50;;
6442;SDS011;3254;47.372;8.512;2022-08-19T11:51:16;65.70;;;42.17;;
6442;SDS011;3254;47.372;8.512;2022-08-19T11:53:45;66.53;;;40.73;;
6442;SDS011;3254;47.372;8.512;2022-08-19T11:56:11;73.83;;;42.83;;
6442;SDS011;3254;47.372;8.512;2022-08-19T11:58:39;69.20;;;41.93;;
6442;SDS011;3254;47.372;8.512;2022-08-19T12:01:09;71.60;;;41.90;;
6442;SDS011;3254;47.372;8.512;2022-08-19T12:03:43;62.50;;;40.47;;
6442;SDS011;3254;47.372;8.512;2022-08-19T12:06:12;62.37;;;39.23;;
6442;SDS011;3254;47.372;8.512;2022-08-19T12:08:40;61.30;;;40.10;;
6442;SDS011;3254;47.372;8.512;2022-08-19T12:11:07;60.50;;;38.90;;
6442;SDS011;3254;47.372;8.512;2022-08-19T12:13:33;72.50;;;41.50;;
6442;SDS011;3254;47.372;8.512;2022-08-19T12:15:59;69.87;;;42.47;;
6442;SDS011;3254;47.372;8.512;2022-08-19T12:18:25;67.23;;;41.20;;
6442;SDS011;3254;47.372;8.512;2022-08-19T12:20:52;69.23;;;39.90;;
6442;SDS011;3254;47.372;8.512;2022-08-19T12:23:19;67.70;;;42.70;;
6442;SDS011;3254;47.372;8.512;2022-08-19T12:25:46;59.77;;;39.20;;
6442;SDS011;3254;47.372;8.512;2022-08-19T12:28:17;59.63;;;38.20;;
6442;SDS011;3254;47.372;8.512;2022-08-19T12:30:44;61.17;;;39.07;;
6442;SDS011;3254;47.372;8.512;2022-08-19T12:33:10;55.33;;;36.73;;
6442;SDS011;3254;47.372;8.512;2022-08-19T12:35:39;58.43;;;38.37;;
6442;SDS011;3254;47.372;8.512;2022-08-19T12:38:06;56.83;;;37.50;;
6442;SDS011;3254;47.372;8.512;2022-08-19T12:40:31;56.07;;;38.03;;
6442;SDS011;3254;47.372;8.512;2022-08-19T12:42:57;61.50;;;39.20;;
6442;SDS011;3254;47.372;8.512;2022-08-19T12:45:22;51.53;;;36.33;;
6442;SDS011;3254;47.372;8.512;2022-08-19T12:47:48;57.00;;;35.07;;
6442;SDS011;3254;47.372;8.512;2022-08-19T12:50:14;56.80;;;36.83;;
6442;SDS011;3254;47.372;8.512;2022-08-19T12:52:40;53.17;;;35.60;;
6442;SDS011;3254;47.372;8.512;2022-08-19T12:55:07;47.60;;;33.43;;
6442;SDS011;3254;47.372;8.512;2022-08-19T12:57:34;51.70;;;30.87;;
6442;SDS011;3254;47.372;8.512;2022-08-19T13:00:07;46.03;;;33.00;;
6442;SDS011;3254;47.372;8.512;2022-08-19T13:02:41;46.27;;;30.73;;
6442;SDS011;3254;47.372;8.512;2022-08-19T13:05:12;54.43;;;33.13;;
6442;SDS011;3254;47.372;8.512;2022-08-19T13:07:41;49.10;;;31.07;;
6442;SDS011;3254;47.372;8.512;2022-08-19T13:10:09;40.43;;;30.30;;
6442;SDS011;3254;47.372;8.512;2022-08-19T13:12:37;50.40;;;30.20;;
6442;SDS011;3254;47.372;8.512;2022-08-19T13:15:03;45.33;;;33.00;;
6442;SDS011;3254;47.372;8.512;2022-08-19T13:17:30;48.03;;;33.83;;
6442;SDS011;3254;47.372;8.512;2022-08-19T13:19:55;47.57;;;32.03;;
6442;SDS011;3254;47.372;8.512;2022-08-19T13:22:21;45.90;;;32.10;;
6442;SDS011;3254;47.372;8.512;2022-08-19T13:24:47;43.40;;;31.60;;
6442;SDS011;3254;47.372;8.512;2022-08-19T13:27:13;43.30;;;30.97;;
6442;SDS011;3254;47.372;8.512;2022-08-19T13:29:39;39.77;;;29.70;;
6442;SDS011;3254;47.372;8.512;2022-08-19T13:32:24;36.30;;;26.63;;
6442;SDS011;3254;47.372;8.512;2022-08-19T13:35:08;39.07;;;27.57;;
6442;SDS011;3254;47.372;8.512;2022-08-19T13:37:34;33.63;;;26.67;;
6442;SDS011;3254;47.372;8.512;2022-08-19T13:40:14;38.37;;;28.00;;
6442;SDS011;3254;47.372;8.512;2022-08-19T13:42:46;36.33;;;27.13;;
6442;SDS011;3254;47.372;8.512;2022-08-19T13:45:14;37.80;;;27.20;;
6442;SDS011;3254;47.372;8.512;2022-08-19T13:47:44;35.30;;;26.80;;
6442;SDS011;3254;47.372;8.512;2022-08-19T13:50:19;34.20;;;26.10;;
6442;SDS011;3254;47.372;8.512;2022-08-19T13:52:50;35.10;;;24.47;;
6442;SDS011;3254;47.372;8.512;2022-08-19T13:55:16;35.70;;;26.97;;
6442;SDS011;3254;47.372;8.512;2022-08-19T13:57:42;34.57;;;25.70;;
6442;SDS011;3254;47.372;8.512;2022-08-19T14:00:10;35.27;;;27.40;;
6442;SDS011;3254;47.372;8.512;2022-08-19T14:02:43;32.03;;;24.80;;
6442;SDS011;3254;47.372;8.512;2022-08-19T14:05:10;30.27;;;24.10;;
6442;SDS011;3254;47.372;8.512;2022-08-19T14:07:39;35.50;;;25.30;;
6442;SDS011;3254;47.372;8.512;2022-08-19T14:10:06;36.17;;;24.80;;
6442;SDS011;3254;47.372;8.512;2022-08-19T14:12:33;32.80;;;25.00;;
6442;SDS011;3254;47.372;8.512;2022-08-19T14:14:58;31.27;;;25.40;;
6442;SDS011;3254;47.372;8.512;2022-08-19T14:17:25;33.17;;;24.53;;
6442;SDS011;3254;47.372;8.512;2022-08-19T14:19:57;29.47;;;23.57;;
6442;SDS011;3254;47.372;8.512;2022-08-19T14:22:25;28.50;;;23.07;;
6442;SDS011;3254;47.372;8.512;2022-08-19T14:24:51;30.30;;;24.00;;
6442;SDS011;3254;47.372;8.512;2022-08-19T14:27:17;26.50;;;21.83;;
6442;SDS011;3254;47.372;8.512;2022-08-19T14:29:42;30.00;;;22.43;;
6442;SDS011;3254;47.372;8.512;2022-08-19T14:32:09;26.37;;;22.40;;
6442;SDS011;3254;47.372;8.512;2022-08-19T14:34:35;29.90;;;22.93;;
6442;SDS011;3254;47.372;8.512;2022-08-19T14:37:02;24.90;;;21.70;;
6442;SDS011;3254;47.372;8.512;2022-08-19T14:39:27;33.53;;;23.50;;
6442;SDS011;3254;47.372;8.512;2022-08-19T14:41:53;27.83;;;24.03;;
6442;SDS011;3254;47.372;8.512;2022-08-19T14:44:19;31.80;;;25.27;;
6442;SDS011;3254;47.372;8.512;2022-08-19T14:46:45;29.73;;;22.30;;
6442;SDS011;3254;47.372;8.512;2022-08-19T14:49:10;27.00;;;23.20;;
6442;SDS011;3254;47.372;8.512;2022-08-19T14:51:36;26.50;;;22.70;;
6442;SDS011;3254;47.372;8.512;2022-08-19T14:54:02;29.23;;;23.93;;
6442;SDS011;3254;47.372;8.512;2022-08-19T14:56:28;28.43;;;24.40;;
6442;SDS011;3254;47.372;8.512;2022-08-19T14:58:55;36.83;;;25.90;;
6442;SDS011;3254;47.372;8.512;2022-08-19T15:01:24;27.33;;;23.10;;
6442;SDS011;3254;47.372;8.512;2022-08-19T15:03:51;28.90;;;22.67;;
6442;SDS011;3254;47.372;8.512;2022-08-19T15:06:18;30.40;;;24.37;;
6442;SDS011;3254;47.372;8.512;2022-08-19T15:08:44;27.90;;;22.90;;